sensor_id;sensor_type;location;lat;lon;timestamp;pressure;altitude;pressure_sealevel;temperature;humidity
46614;BME280;32338;50.430;6.806;2022-10-31T00:01:10;66487.59;;;9.81;100.00
46614;BME280;32338;50.430;6.806;2022-10-31T00:03:37;66486.13;;;9.82;100.00
46614;BME280;32338;50.430;6.806;2022-10-31T00:06:04;66504.88;;;9.95;100.00
46614;BME280;32338;50.430;6.806;2022-10-31T00:08:30;66506.94;;;9.94;100.00
46614;BME280;32338;50.430;6.806;2022-10-31T00:10:57;66504.69;;;9.92;100.00
46614;BME280;32338;50.430;6.806;2022-10-31T00:13:25;66505.44;;;9.95;100.00
46614;BME280;32338;50.430;6.806;2022-10-31T00:15:52;66511.44;;;9.98;100.00
46614;BME280;32338;50.430;6.806;2022-10-31T00:18:18;66505.06;;;9.97;100.00
46614;BME280;32338;50.430;6.806;2022-10-31T00:20:45;66499.44;;;9.92;100.00
46614;BME280;32338;50.430;6.806;2022-10-31T00:23:11;66505.81;;;9.93;100.00
46614;BME280;32338;50.430;6.806;2022-10-31T00:25:39;66490.81;;;9.82;100.00
46614;BME280;32338;50.430;6.806;2022-10-31T00:28:07;66471.47;;;9.62;100.00
46614;BME280;32338;50.430;6.806;2022-10-31T00:30:37;66457.38;;;9.49;100.00
46614;BME280;32338;50.430;6.806;2022-10-31T00:33:04;66463.22;;;9.56;100.00
46614;BME280;32338;50.430;6.806;2022-10-31T00:35:31;66461.16;;;9.57;100.00
46614;BME280;32338;50.430;6.806;2022-10-31T00:37:58;66461.50;;;9.55;100.00
46614;BME280;32338;50.430;6.806;2022-10-31T00:40:24;66473.34;;;9.66;100.00
46614;BME280;32338;50.430;6.806;2022-10-31T00:42:51;66470.16;;;9.65;100.00
46614;BME280;32338;50.430;6.806;2022-10-31T00:45:17;66453.28;;;9.50;100.00
46614;BME280;32338;50.430;6.806;2022-10-31T00:47:45;66435.44;;;9.29;100.00
46614;BME280;32338;50.430;6.806;2022-10-31T00:50:12;66420.44;;;9.17;100.00
46614;BME280;32338;50.430;6.806;2022-10-31T00:52:39;66425.50;;;9.22;100.00
46614;BME280;32338;50.430;6.806;2022-10-31T00:55:05;66409.72;;;9.07;100.00
46614;BME280;32338;50.430;6.806;2022-10-31T00:57:32;66403.56;;;9.02;100.00
46614;BME280;32338;50.430;6.806;2022-10-31T00:59:59;66417.81;;;9.17;100.00
46614;BME280;32338;50.430;6.806;2022-10-31T01:02:25;66429.63;;;9.28;100.00
46614;BME280;32338;50.430;6.806;2022-10-31T01:04:53;66437.69;;;9.31;100.00
46614;BME280;32338;50.430;6.806;2022-10-31T01:07:20;66434.13;;;9.32;100.00
46614;BME280;32338;50.430;6.806;2022-10-31T01:09:47;66440.13;;;9.35;100.00
46614;BME280;32338;50.430;6.806;2022-10-31T01:12:13;66431.53;;;9.32;100.00
46614;BME280;32338;50.430;6.806;2022-10-31T01:14:42;66438.06;;;9.36;100.00
46614;BME280;32338;50.430;6.806;2022-10-31T01:17:09;66436.75;;;9.32;100.00
46614;BME280;32338;50.430;6.806;2022-10-31T01:19:36;66440.13;;;9.35;100.00
46614;BME280;32338;50.430;6.806;2022-10-31T01:22:04;66436.94;;;9.35;100.00
46614;BME280;32338;50.430;6.806;2022-10-31T01:24:31;66449.31;;;9.39;100.00
46614;BME280;32338;50.430;6.806;2022-10-31T01:26:57;66446.13;;;9.38;100.00
46614;BME280;32338;50.430;6.806;2022-10-31T01:29:24;66447.44;;;9.42;100.00
46614;BME280;32338;50.430;6.806;2022-10-31T01:31:50;66455.34;;;9.49;100.00
46614;BME280;32338;50.430;6.806;2022-10-31T01:34:17;66458.13;;;9.45;100.00
46614;BME280;32338;50.430;6.806;2022-10-31T01:36:45;66438.63;;;9.36;100.00
46614;BME280;32338;50.430;6.806;2022-10-31T01:39:18;66443.50;;;9.38;100.00
46614;BME280;32338;50.430;6.806;2022-10-31T01:41:47;66433.78;;;9.34;100.00
46614;BME280;32338;50.430;6.806;2022-10-31T01:44:53;66453.66;;;9.48;100.00
46614;BME280;32338;50.430;6.806;2022-10-31T01:47:26;66454.41;;;9.51;100.00
46614;BME280;32338;50.430;6.806;2022-10-31T01:49:58;66459.84;;;9.53;100.00
46614;BME280;32338;50.430;6.806;2022-10-31T01:52:28;66439.75;;;9.37;100.00
46614;BME280;32338;50.430;6.806;2022-10-31T01:55:00;66447.28;;;9.47;100.00
46614;BME280;32338;50.430;6.806;2022-10-31T01:57:28;66455.69;;;9.47;100.00
46614;BME280;32338;50.430;6.806;2022-10-31T01:59:58;66458.50;;;9.50;100.00
46614;BME280;32338;50.430;6.806;2022-10-31T02:02:27;66452.53;;;9.47;100.00
46614;BME280;32338;50.430;6.806;2022-10-31T02:04:56;66455.34;;;9.49;100.00
46614;BME280;32338;50.430;6.806;2022-10-31T02:07:28;66444.09;;;9.39;100.00
46614;BME280;32338;50.430;6.806;2022-10-31T02:09:58;66442.94;;;9.38;100.00
46614;BME280;32338;50.430;6.806;2022-10-31T02:12:27;66430.38;;;9.24;100.00
46614;BME280;32338;50.430;6.806;2022-10-31T02:14:54;66430.38;;;9.24;100.00
46614;BME280;32338;50.430;6.806;2022-10-31T02:17:20;66432.81;;;9.29;100.00
46614;BME280;32338;50.430;6.806;2022-10-31T02:19:52;66432.25;;;9.28;100.00
46614;BME280;32338;50.430;6.806;2022-10-31T02:22:27;66425.13;;;9.24;100.00
46614;BME280;32338;50.430;6.806;2022-10-31T02:28:08;66439.75;;;9.37;100.00
46614;BME280;32338;50.430;6.806;2022-10-31T02:30:58;66433.56;;;9.32;100.00
46614;BME280;32338;50.430;6.806;2022-10-31T02:33:30;66443.31;;;9.36;100.00
46614;BME280;32338;50.430;6.806;2022-10-31T02:36:04;66420.06;;;9.19;100.00
46614;BME280;32338;50.430;6.806;2022-10-31T02:38:42;66412.34;;;9.07;100.00
46614;BME280;32338;50.430;6.806;2022-10-31T02:41:18;66406.91;;;9.05;100.00
46614;BME280;32338;50.430;6.806;2022-10-31T02:43:54;66401.28;;;9.00;100.00
46614;BME280;32338;50.430;6.806;2022-10-31T02:46:28;66418.19;;;9.15;100.00
46614;BME280;32338;50.430;6.806;2022-10-31T02:49:04;66420.06;;;9.19;100.00
46614;BME280;32338;50.430;6.806;2022-10-31T02:51:33;66433.38;;;9.29;100.00
46614;BME280;32338;50.430;6.806;2022-10-31T02:54:01;66433.94;;;9.30;100.00
46614;BME280;32338;50.430;6.806;2022-10-31T02:56:27;66431.91;;;9.30;100.00
46614;BME280;32338;50.430;6.806;2022-10-31T02:58:55;66419.31;;;9.16;100.00
46614;BME280;32338;50.430;6.806;2022-10-31T03:01:46;66417.63;;;9.15;100.00
46614;BME280;32338;50.430;6.806;2022-10-31T03:04:41;66429.44;;;9.25;100.00
46614;BME280;32338;50.430;6.806;2022-10-31T03:07:20;66431.31;;;9.30;100.00
46614;BME280;32338;50.430;6.806;2022-10-31T03:09:57;66431.91;;;9.30;100.00
46614;BME280;32338;50.430;6.806;2022-10-31T03:12:30;66423.25;;;9.20;100.00
46614;BME280;32338;50.430;6.806;2022-10-31T03:15:11;66415.38;;;9.13;100.00
46614;BME280;32338;50.430;6.806;2022-10-31T03:17:48;66399.25;;;9.00;100.00
46614;BME280;32338;50.430;6.806;2022-10-31T03:20:22;66377.31;;;8.80;100.00
46614;BME280;32338;50.430;6.806;2022-10-31T03:25:16;66382.75;;;8.83;100.00
46614;BME280;32338;50.430;6.806;2022-10-31T03:27:44;66387.78;;;8.87;100.00
46614;BME280;32338;50.430;6.806;2022-10-31T03:30:13;66391.19;;;8.90;100.00
46614;BME280;32338;50.430;6.806;2022-10-31T03:32:44;66392.84;;;8.92;100.00
46614;BME280;32338;50.430;6.806;2022-10-31T03:35:13;66395.66;;;8.95;100.00
46614;BME280;32338;50.430;6.806;2022-10-31T03:37:41;66396.81;;;8.96;100.00
46614;BME280;32338;50.430;6.806;2022-10-31T03:40:10;66409.19;;;9.07;100.00
46614;BME280;32338;50.430;6.806;2022-10-31T03:42:41;66400.38;;;9.01;100.00
46614;BME280;32338;50.430;6.806;2022-10-31T03:45:11;66392.31;;;8.91;100.00
46614;BME280;32338;50.430;6.806;2022-10-31T03:47:41;66392.84;;;8.92;100.00
46614;BME280;32338;50.430;6.806;2022-10-31T03:50:11;66409.19;;;9.07;100.00
46614;BME280;32338;50.430;6.806;2022-10-31T03:52:43;66425.09;;;9.17;100.00
46614;BME280;32338;50.430;6.806;2022-10-31T03:55:17;66415.78;;;9.18;100.00
46614;BME280;32338;50.430;6.806;2022-10-31T03:57:48;66418.75;;;9.16;100.00
46614;BME280;32338;50.430;6.806;2022-10-31T04:00:18;66416.88;;;9.12;100.00
46614;BME280;32338;50.430;6.806;2022-10-31T04:02:50;66416.47;;;9.14;100.00
46614;BME280;32338;50.430;6.806;2022-10-31T04:05:20;66413.88;;;9.14;100.00
46614;BME280;32338;50.430;6.806;2022-10-31T04:07:51;66414.44;;;9.14;100.00
46614;BME280;32338;50.430;6.806;2022-10-31T04:10:20;66412.53;;;9.10;100.00
46614;BME280;32338;50.430;6.806;2022-10-31T04:12:51;66407.13;;;9.07;100.00
46614;BME280;32338;50.430;6.806;2022-10-31T04:15:20;66412.75;;;9.13;100.00
46614;BME280;32338;50.430;6.806;2022-10-31T04:17:52;66413.13;;;9.11;100.00
46614;BME280;32338;50.430;6.806;2022-10-31T04:20:29;66399.81;;;9.01;100.00
46614;BME280;32338;50.430;6.806;2022-10-31T04:22:56;66392.50;;;8.94;100.00
46614;BME280;32338;50.430;6.806;2022-10-31T04:25:22;66381.59;;;8.82;100.00
46614;BME280;32338;50.430;6.806;2022-10-31T04:27:49;66376.19;;;8.79;100.00
46614;BME280;32338;50.430;6.806;2022-10-31T04:30:16;66384.44;;;8.84;100.00
46614;BME280;32338;50.430;6.806;2022-10-31T04:32:42;66383.13;;;8.88;100.00
46614;BME280;32338;50.430;6.806;2022-10-31T04:35:10;66372.97;;;8.71;100.00
46614;BME280;32338;50.430;6.806;2022-10-31T04:37:37;66352.00;;;8.57;100.00
46614;BME280;32338;50.430;6.806;2022-10-31T04:40:04;66356.47;;;8.61;100.00
46614;BME280;32338;50.430;6.806;2022-10-31T04:42:31;66359.66;;;8.62;100.00
46614;BME280;32338;50.430;6.806;2022-10-31T04:44:58;66359.47;;;8.59;100.00
46614;BME280;32338;50.430;6.806;2022-10-31T04:47:25;66356.47;;;8.61;100.00
46614;BME280;32338;50.430;6.806;2022-10-31T04:49:51;66353.47;;;8.56;100.00
46614;BME280;32338;50.430;6.806;2022-10-31T04:52:19;66358.53;;;8.60;100.00
46614;BME280;32338;50.430;6.806;2022-10-31T04:54:46;66363.97;;;8.63;100.00
46614;BME280;32338;50.430;6.806;2022-10-31T04:57:12;66359.09;;;8.61;100.00
46614;BME280;32338;50.430;6.806;2022-10-31T04:59:39;66351.44;;;8.56;100.00
46614;BME280;32338;50.430;6.806;2022-10-31T05:02:05;66338.06;;;8.39;100.00
46614;BME280;32338;50.430;6.806;2022-10-31T05:04:32;66333.78;;;8.38;100.00
46614;BME280;32338;50.430;6.806;2022-10-31T05:06:58;66319.94;;;8.27;100.00
46614;BME280;32338;50.430;6.806;2022-10-31T05:09:26;66307.34;;;8.14;100.00
46614;BME280;32338;50.430;6.806;2022-10-31T05:11:53;66298.72;;;8.03;100.00
46614;BME280;32338;50.430;6.806;2022-10-31T05:14:19;66283.72;;;7.92;100.00
46614;BME280;32338;50.430;6.806;2022-10-31T05:16:46;66296.66;;;8.04;100.00
46614;BME280;32338;50.430;6.806;2022-10-31T05:19:12;66305.47;;;8.09;100.00
46614;BME280;32338;50.430;6.806;2022-10-31T05:21:39;66306.78;;;8.13;100.00
46614;BME280;32338;50.430;6.806;2022-10-31T05:24:06;66296.28;;;8.06;100.00
46614;BME280;32338;50.430;6.806;2022-10-31T05:26:34;66309.94;;;8.14;100.00
46614;BME280;32338;50.430;6.806;2022-10-31T05:29:01;66307.91;;;8.14;100.00
46614;BME280;32338;50.430;6.806;2022-10-31T05:31:27;66315.22;;;8.21;100.00
46614;BME280;32338;50.430;6.806;2022-10-31T05:33:54;66319.16;;;8.24;100.00
46614;BME280;32338;50.430;6.806;2022-10-31T05:36:21;66320.47;;;8.28;100.00
46614;BME280;32338;50.430;6.806;2022-10-31T05:38:47;66323.66;;;8.28;100.00
46614;BME280;32338;50.430;6.806;2022-10-31T05:41:14;66331.31;;;8.33;100.00
46614;BME280;32338;50.430;6.806;2022-10-31T05:43:42;66324.38;;;8.24;100.00
46614;BME280;32338;50.430;6.806;2022-10-31T05:46:08;66312.97;;;8.19;100.00
46614;BME280;32338;50.430;6.806;2022-10-31T05:48:35;66307.53;;;8.16;100.00
46614;BME280;32338;50.430;6.806;2022-10-31T05:51:02;66322.53;;;8.27;100.00
46614;BME280;32338;50.430;6.806;2022-10-31T05:53:28;66332.44;;;8.34;100.00
46614;BME280;32338;50.430;6.806;2022-10-31T05:55:55;66339.59;;;8.46;100.00
46614;BME280;32338;50.430;6.806;2022-10-31T05:58:21;66335.66;;;8.42;100.00
46614;BME280;32338;50.430;6.806;2022-10-31T06:00:49;66345.97;;;8.47;100.00
46614;BME280;32338;50.430;6.806;2022-10-31T06:03:16;66337.16;;;8.41;100.00
46614;BME280;32338;50.430;6.806;2022-10-31T06:05:42;66333.19;;;8.37;100.00
46614;BME280;32338;50.430;6.806;2022-10-31T06:08:09;66332.66;;;8.37;100.00
46614;BME280;32338;50.430;6.806;2022-10-31T06:10:35;66338.28;;;8.42;100.00
46614;BME280;32338;50.430;6.806;2022-10-31T06:13:02;66340.75;;;8.47;100.00
46614;BME280;32338;50.430;6.806;2022-10-31T06:15:29;66348.78;;;8.49;100.00
46614;BME280;32338;50.430;6.806;2022-10-31T06:18:04;66339.94;;;8.43;100.00
46614;BME280;32338;50.430;6.806;2022-10-31T06:20:32;66329.84;;;8.34;100.00
46614;BME280;32338;50.430;6.806;2022-10-31T06:22:59;66325.53;;;8.33;100.00
46614;BME280;32338;50.430;6.806;2022-10-31T06:25:26;66328.72;;;8.33;100.00
46614;BME280;32338;50.430;6.806;2022-10-31T06:27:52;66324.03;;;8.34;100.00
46614;BME280;32338;50.430;6.806;2022-10-31T06:30:19;66325.16;;;8.35;100.00
46614;BME280;32338;50.430;6.806;2022-10-31T06:32:46;66327.59;;;8.32;100.00
46614;BME280;32338;50.430;6.806;2022-10-31T06:35:14;66330.97;;;8.35;100.00
46614;BME280;32338;50.430;6.806;2022-10-31T06:37:40;66353.63;;;8.51;100.00
46614;BME280;32338;50.430;6.806;2022-10-31T06:40:08;66336.78;;;8.43;100.00
46614;BME280;32338;50.430;6.806;2022-10-31T06:42:35;66332.28;;;8.39;100.00
46614;BME280;32338;50.430;6.806;2022-10-31T06:45:01;66315.25;;;8.28;100.00
46614;BME280;32338;50.430;6.806;2022-10-31T06:47:28;66314.66;;;8.20;100.00
46614;BME280;32338;50.430;6.806;2022-10-31T06:49:54;66311.84;;;8.18;100.00
46614;BME280;32338;50.430;6.806;2022-10-31T06:52:22;66316.50;;;8.17;100.00
46614;BME280;32338;50.430;6.806;2022-10-31T06:54:49;66320.09;;;8.23;100.00
46614;BME280;32338;50.430;6.806;2022-10-31T06:57:16;66320.28;;;8.25;100.00
46614;BME280;32338;50.430;6.806;2022-10-31T06:59:42;66327.22;;;8.34;100.00
46614;BME280;32338;50.430;6.806;2022-10-31T07:02:09;66327.75;;;8.27;100.00
46614;BME280;32338;50.430;6.806;2022-10-31T07:04:36;66306.97;;;8.16;100.00
46614;BME280;32338;50.430;6.806;2022-10-31T07:07:03;66309.59;;;8.16;100.00
46614;BME280;32338;50.430;6.806;2022-10-31T07:09:31;66305.31;;;8.14;100.00
46614;BME280;32338;50.430;6.806;2022-10-31T07:11:58;66302.50;;;8.11;100.00
46614;BME280;32338;50.430;6.806;2022-10-31T07:14:24;66322.53;;;8.27;100.00
46614;BME280;32338;50.430;6.806;2022-10-31T07:16:51;66318.22;;;8.26;100.00
46614;BME280;32338;50.430;6.806;2022-10-31T07:19:18;66332.44;;;8.34;100.00
46614;BME280;32338;50.430;6.806;2022-10-31T07:21:45;66327.03;;;8.32;100.00
46614;BME280;32338;50.430;6.806;2022-10-31T07:24:11;66328.72;;;8.33;100.00
46614;BME280;32338;50.430;6.806;2022-10-31T07:26:39;66313.19;;;8.21;100.00
46614;BME280;32338;50.430;6.806;2022-10-31T07:29:07;66323.28;;;8.31;100.00
46614;BME280;32338;50.430;6.806;2022-10-31T07:31:34;66341.09;;;8.44;100.00
46614;BME280;32338;50.430;6.806;2022-10-31T07:34:00;66342.22;;;8.46;100.00
46614;BME280;32338;50.430;6.806;2022-10-31T07:36:27;66341.66;;;8.45;100.00
46614;BME280;32338;50.430;6.806;2022-10-31T07:38:54;66331.16;;;8.38;100.00
46614;BME280;32338;50.430;6.806;2022-10-31T07:41:21;66339.59;;;8.46;100.00
46614;BME280;32338;50.430;6.806;2022-10-31T07:43:49;66347.31;;;8.50;100.00
46614;BME280;32338;50.430;6.806;2022-10-31T07:46:15;66345.59;;;8.49;100.00
46614;BME280;32338;50.430;6.806;2022-10-31T07:48:42;66354.25;;;8.59;100.00
46614;BME280;32338;50.430;6.806;2022-10-31T07:51:08;66352.34;;;8.55;100.00
46614;BME280;32338;50.430;6.806;2022-10-31T07:53:35;66361.16;;;8.60;100.00
46614;BME280;32338;50.430;6.806;2022-10-31T07:56:02;66363.63;;;8.65;100.00
46614;BME280;32338;50.430;6.806;2022-10-31T07:58:28;66384.78;;;8.82;100.00
46614;BME280;32338;50.430;6.806;2022-10-31T08:00:57;66382.94;;;8.85;100.00
46614;BME280;32338;50.430;6.806;2022-10-31T08:03:23;66395.47;;;8.92;100.00
46614;BME280;32338;50.430;6.806;2022-10-31T08:05:50;66400.75;;;8.99;100.00
46614;BME280;32338;50.430;6.806;2022-10-31T08:08:17;66407.50;;;9.05;100.00
46614;BME280;32338;50.430;6.806;2022-10-31T08:10:43;66420.63;;;9.20;100.00
46614;BME280;32338;50.430;6.806;2022-10-31T08:13:12;66419.50;;;9.19;100.00
46614;BME280;32338;50.430;6.806;2022-10-31T08:15:39;66423.06;;;9.24;100.00
46614;BME280;32338;50.430;6.806;2022-10-31T08:18:11;66426.63;;;9.23;100.00
46614;BME280;32338;50.430;6.806;2022-10-31T08:20:38;66404.69;;;9.03;100.00
46614;BME280;32338;50.430;6.806;2022-10-31T08:23:05;66408.44;;;9.04;100.00
46614;BME280;32338;50.430;6.806;2022-10-31T08:25:34;66407.13;;;9.07;100.00
46614;BME280;32338;50.430;6.806;2022-10-31T08:28:01;66421.34;;;9.16;100.00
46614;BME280;32338;50.430;6.806;2022-10-31T08:30:29;66427.75;;;9.24;100.00
46614;BME280;32338;50.430;6.806;2022-10-31T08:33:03;66435.44;;;9.29;100.00
46614;BME280;32338;50.430;6.806;2022-10-31T08:35:31;66431.91;;;9.30;100.00
46614;BME280;32338;50.430;6.806;2022-10-31T08:37:59;66428.16;;;9.29;100.00
46614;BME280;32338;50.430;6.806;2022-10-31T08:40:27;66433.38;;;9.29;100.00
46614;BME280;32338;50.430;6.806;2022-10-31T08:43:01;66426.97;;;9.21;100.00
46614;BME280;32338;50.430;6.806;2022-10-31T08:45:29;66433.38;;;9.29;100.00
46614;BME280;32338;50.430;6.806;2022-10-31T08:48:00;66433.75;;;9.27;100.00
46614;BME280;32338;50.430;6.806;2022-10-31T08:50:27;66433.94;;;9.30;100.00
46614;BME280;32338;50.430;6.806;2022-10-31T08:53:00;66448.56;;;9.43;100.00
46614;BME280;32338;50.430;6.806;2022-10-31T08:55:27;66475.19;;;9.63;100.00
46614;BME280;32338;50.430;6.806;2022-10-31T08:57:54;66486.66;;;9.76;100.00
46614;BME280;32338;50.430;6.806;2022-10-31T09:00:22;66494.94;;;9.88;100.00
46614;BME280;32338;50.430;6.806;2022-10-31T09:02:54;66512.03;;;10.06;100.00
46614;BME280;32338;50.430;6.806;2022-10-31T09:05:21;66527.19;;;10.13;100.00
46614;BME280;32338;50.430;6.806;2022-10-31T09:07:48;66522.19;;;10.15;100.00
46614;BME280;32338;50.430;6.806;2022-10-31T09:10:15;66532.47;;;10.20;100.00
46614;BME280;32338;50.430;6.806;2022-10-31T09:12:42;66550.50;;;10.36;100.00
46614;BME280;32338;50.430;6.806;2022-10-31T09:15:09;66559.72;;;10.47;100.00
46614;BME280;32338;50.430;6.806;2022-10-31T09:17:35;66557.31;;;10.50;100.00
46614;BME280;32338;50.430;6.806;2022-10-31T09:20:02;66560.28;;;10.48;100.00
46614;BME280;32338;50.430;6.806;2022-10-31T09:22:29;66566.66;;;10.49;100.00
46614;BME280;32338;50.430;6.806;2022-10-31T09:24:55;66572.91;;;10.62;100.00
46614;BME280;32338;50.430;6.806;2022-10-31T09:27:23;66578.13;;;10.62;100.00
46614;BME280;32338;50.430;6.806;2022-10-31T09:29:50;66589.75;;;10.70;100.00
46614;BME280;32338;50.430;6.806;2022-10-31T09:32:16;66584.31;;;10.67;100.00
46614;BME280;32338;50.430;6.806;2022-10-31T09:34:43;66578.69;;;10.62;100.00
46614;BME280;32338;50.430;6.806;2022-10-31T09:37:10;66593.34;;;10.76;100.00
46614;BME280;32338;50.430;6.806;2022-10-31T09:39:36;66587.13;;;10.70;100.00
46614;BME280;32338;50.430;6.806;2022-10-31T09:45:03;66570.81;;;10.55;100.00
46614;BME280;32338;50.430;6.806;2022-10-31T09:47:43;66564.81;;;10.52;100.00
46614;BME280;32338;50.430;6.806;2022-10-31T09:50:15;66599.91;;;10.79;100.00
46614;BME280;32338;50.430;6.806;2022-10-31T09:52:57;66580.00;;;10.66;100.00
46614;BME280;32338;50.430;6.806;2022-10-31T09:55:30;66591.09;;;10.74;100.00
46614;BME280;32338;50.430;6.806;2022-10-31T09:57:59;66604.06;;;10.85;100.00
46614;BME280;32338;50.430;6.806;2022-10-31T10:00:27;66612.50;;;10.93;100.00
46614;BME280;32338;50.430;6.806;2022-10-31T10:03:00;66625.66;;;11.08;100.00
46614;BME280;32338;50.430;6.806;2022-10-31T10:05:32;66615.31;;;10.96;100.00
46614;BME280;32338;50.430;6.806;2022-10-31T10:08:02;66634.09;;;11.15;100.00
46614;BME280;32338;50.430;6.806;2022-10-31T10:10:39;66626.63;;;11.13;100.00
46614;BME280;32338;50.430;6.806;2022-10-31T10:13:32;66644.06;;;11.22;100.00
46614;BME280;32338;50.430;6.806;2022-10-31T10:16:24;66663.81;;;11.40;100.00
46614;BME280;32338;50.430;6.806;2022-10-31T10:19:06;66670.22;;;11.48;100.00
46614;BME280;32338;50.430;6.806;2022-10-31T10:21:45;66671.16;;;11.47;100.00
46614;BME280;32338;50.430;6.806;2022-10-31T10:24:24;66680.34;;;11.50;100.00
46614;BME280;32338;50.430;6.806;2022-10-31T10:26:59;66682.06;;;11.59;100.00
46614;BME280;32338;50.430;6.806;2022-10-31T10:29:34;66695.19;;;11.66;100.00
46614;BME280;32338;50.430;6.806;2022-10-31T10:32:10;66695.38;;;11.69;100.00
46614;BME280;32338;50.430;6.806;2022-10-31T10:34:43;66713.06;;;11.88;100.00
46614;BME280;32338;50.430;6.806;2022-10-31T10:37:20;66722.06;;;11.89;100.00
46614;BME280;32338;50.430;6.806;2022-10-31T10:39:53;66718.69;;;11.93;100.00
46614;BME280;32338;50.430;6.806;2022-10-31T10:42:23;66721.91;;;11.93;100.00
46614;BME280;32338;50.430;6.806;2022-10-31T10:45:14;66735.47;;;12.06;100.00
46614;BME280;32338;50.430;6.806;2022-10-31T10:48:06;66755.75;;;12.24;100.00
46614;BME280;32338;50.430;6.806;2022-10-31T10:50:35;66754.66;;;12.23;100.00
46614;BME280;32338;50.430;6.806;2022-10-31T10:53:09;66760.28;;;12.28;100.00
46614;BME280;32338;50.430;6.806;2022-10-31T10:55:51;66778.53;;;12.47;100.00
46614;BME280;32338;50.430;6.806;2022-10-31T10:58:22;66774.03;;;12.43;100.00
46614;BME280;32338;50.430;6.806;2022-10-31T11:00:49;66772.91;;;12.42;100.00
46614;BME280;32338;50.430;6.806;2022-10-31T11:03:18;66769.91;;;12.44;100.00
46614;BME280;32338;50.430;6.806;2022-10-31T11:05:47;66777.41;;;12.46;100.00
46614;BME280;32338;50.430;6.806;2022-10-31T11:08:23;66784.75;;;12.53;100.00
46614;BME280;32338;50.430;6.806;2022-10-31T11:10:58;66794.91;;;12.62;100.00
46614;BME280;32338;50.430;6.806;2022-10-31T11:13:24;66807.69;;;12.72;100.00
46614;BME280;32338;50.430;6.806;2022-10-31T11:16:05;66809.94;;;12.74;100.00
46614;BME280;32338;50.430;6.806;2022-10-31T11:18:34;66813.72;;;12.75;100.00
46614;BME280;32338;50.430;6.806;2022-10-31T11:21:04;66816.38;;;12.82;100.00
46614;BME280;32338;50.430;6.806;2022-10-31T11:23:31;66827.28;;;12.87;100.00
46614;BME280;32338;50.430;6.806;2022-10-31T11:25:59;66832.53;;;12.94;100.00
46614;BME280;32338;50.430;6.806;2022-10-31T11:28:28;66847.59;;;13.13;100.00
46614;BME280;32338;50.430;6.806;2022-10-31T11:30:56;66851.34;;;13.14;100.00
46614;BME280;32338;50.430;6.806;2022-10-31T11:33:27;66866.78;;;13.30;100.00
46614;BME280;32338;50.430;6.806;2022-10-31T11:35:57;66869.25;;;13.35;100.00
46614;BME280;32338;50.430;6.806;2022-10-31T11:38:28;66890.16;;;13.47;100.00
46614;BME280;32338;50.430;6.806;2022-10-31T11:41:03;66906.34;;;13.67;100.00
46614;BME280;32338;50.430;6.806;2022-10-31T11:43:33;66917.09;;;13.76;100.00
46614;BME280;32338;50.430;6.806;2022-10-31T11:46:08;66943.66;;;13.93;100.00
46614;BME280;32338;50.430;6.806;2022-10-31T11:48:35;66964.38;;;14.17;100.00
46614;BME280;32338;50.430;6.806;2022-10-31T11:51:04;66970.38;;;14.20;100.00
46614;BME280;32338;50.430;6.806;2022-10-31T11:53:33;66964.56;;;14.20;100.00
46614;BME280;32338;50.430;6.806;2022-10-31T11:56:04;66976.22;;;14.28;100.00
46614;BME280;32338;50.430;6.806;2022-10-31T11:58:31;66979.44;;;14.29;100.00
46614;BME280;32338;50.430;6.806;2022-10-31T12:00:57;66982.47;;;14.34;100.00
46614;BME280;32338;50.430;6.806;2022-10-31T12:03:34;66982.81;;;14.32;100.00
46614;BME280;32338;50.430;6.806;2022-10-31T12:06:09;66995.84;;;14.43;100.00
46614;BME280;32338;50.430;6.806;2022-10-31T12:08:39;66991.88;;;14.40;100.00
46614;BME280;32338;50.430;6.806;2022-10-31T12:11:12;66984.69;;;14.36;100.00
46614;BME280;32338;50.430;6.806;2022-10-31T12:13:45;66983.59;;;14.35;100.00
46614;BME280;32338;50.430;6.806;2022-10-31T12:16:21;66996.03;;;14.46;100.00
46614;BME280;32338;50.430;6.806;2022-10-31T12:18:58;66990.94;;;14.41;100.00
46614;BME280;32338;50.430;6.806;2022-10-31T12:21:55;66996.59;;;14.47;100.00
46614;BME280;32338;50.430;6.806;2022-10-31T12:24:38;67010.72;;;14.59;100.00
46614;BME280;32338;50.430;6.806;2022-10-31T12:27:16;67021.28;;;14.67;100.00
46614;BME280;32338;50.430;6.806;2022-10-31T12:29:56;67020.72;;;14.66;100.00
46614;BME280;32338;50.430;6.806;2022-10-31T12:32:35;67031.47;;;14.76;100.00
46614;BME280;32338;50.430;6.806;2022-10-31T12:35:31;67035.59;;;14.82;100.00
46614;BME280;32338;50.430;6.806;2022-10-31T12:41:14;67057.69;;;14.95;100.00
46614;BME280;32338;50.430;6.806;2022-10-31T12:43:47;67074.63;;;15.18;100.00
46614;BME280;32338;50.430;6.806;2022-10-31T12:46:24;67088.97;;;15.26;100.00
46614;BME280;32338;50.430;6.806;2022-10-31T12:49:12;67086.91;;;15.27;100.00
46614;BME280;32338;50.430;6.806;2022-10-31T12:51:49;67094.81;;;15.34;100.00
46614;BME280;32338;50.430;6.806;2022-10-31T12:54:36;67092.00;;;15.31;100.00
46614;BME280;32338;50.430;6.806;2022-10-31T12:57:14;67109.16;;;15.49;100.00
46614;BME280;32338;50.430;6.806;2022-10-31T12:59:49;67112.56;;;15.52;99.06
46614;BME280;32338;50.430;6.806;2022-10-31T13:02:21;67094.63;;;15.38;99.60
46614;BME280;32338;50.430;6.806;2022-10-31T13:04:54;67092.19;;;15.34;98.62
46614;BME280;32338;50.430;6.806;2022-10-31T13:07:26;67104.03;;;15.45;99.53
46614;BME280;32338;50.430;6.806;2022-10-31T13:10:00;67110.28;;;15.50;97.73
46614;BME280;32338;50.430;6.806;2022-10-31T13:12:30;67110.28;;;15.50;97.90
46614;BME280;32338;50.430;6.806;2022-10-31T13:15:01;67118.56;;;15.55;98.63
46614;BME280;32338;50.430;6.806;2022-10-31T13:17:33;67110.84;;;15.51;99.65
46614;BME280;32338;50.430;6.806;2022-10-31T13:20:14;67104.63;;;15.45;99.02
46614;BME280;32338;50.430;6.806;2022-10-31T13:22:44;67105.75;;;15.46;97.90
46614;BME280;32338;50.430;6.806;2022-10-31T13:25:15;67109.16;;;15.49;96.85